createdAt,value
2019-06-07T00:53:10.718Z,11.20
2019-06-07T00:54:49.926Z,9.40
2019-06-07T00:57:22.149Z,13.17
2019-06-07T00:59:52.592Z,10.53
2019-06-07T01:30:41.633Z,14.63
2019-06-07T01:33:12.438Z,12.70
2019-06-07T01:35:43.475Z,12.37
2019-06-07T01:38:17.180Z,10.23
2019-06-07T01:40:47.879Z,15.03
2019-06-07T01:43:19.567Z,14.00
2019-06-07T01:45:52.207Z,13.83
2019-06-07T01:48:44.375Z,12.40
2019-06-07T01:51:06.674Z,12.90
2019-06-07T01:53:42.166Z,14.80
2019-06-07T01:56:57.316Z,13.40
2019-06-07T01:59:27.309Z,12.17
2019-06-07T02:01:57.774Z,11.97
2019-06-07T02:04:37.222Z,13.03
2019-06-07T02:07:15.043Z,11.00
2019-06-07T02:13:12.230Z,13.67
2019-06-07T02:15:49.701Z,10.20
2019-06-07T02:18:29.149Z,9.83
2019-06-07T02:21:01.499Z,11.33
2019-06-07T02:23:33.732Z,10.53
2019-06-07T02:26:04.811Z,12.43
2019-06-07T02:28:45.297Z,12.73
2019-06-07T02:31:09.789Z,10.43
2019-06-07T02:33:41.861Z,17.67
2019-06-07T02:36:12.689Z,14.90
2019-06-07T02:38:45.065Z,12.27
2019-06-07T02:41:15.939Z,13.77
2019-06-07T02:43:46.693Z,10.17
2019-06-07T02:46:34.349Z,13.80
2019-06-07T02:48:57.607Z,13.77
2019-06-07T02:51:35.754Z,17.20
2019-06-07T02:54:03.666Z,11.30
2019-06-07T02:56:44.863Z,16.13
2019-06-07T02:59:06.545Z,11.60
2019-06-07T03:01:41.885Z,11.67
2019-06-07T03:04:09.751Z,10.17
2019-06-07T03:06:43.915Z,14.50
2019-06-07T03:09:19.771Z,14.83
2019-06-07T03:11:52.370Z,14.73
2019-06-07T03:14:26.013Z,12.57
2019-06-07T03:17:10.078Z,16.13
2019-06-07T03:19:54.428Z,15.40
2019-06-07T03:22:39.900Z,12.53
2019-06-07T03:25:05.490Z,12.27
2019-06-07T03:27:55.884Z,12.77
2019-06-07T03:30:48.736Z,15.53
2019-06-07T03:33:22.338Z,12.57
2019-06-07T03:35:56.574Z,15.13
2019-06-07T03:38:28.266Z,13.13
2019-06-07T03:41:00.474Z,13.87
2019-06-07T03:43:37.773Z,12.57
2019-06-07T03:46:05.450Z,15.03
2019-06-07T03:48:39.602Z,12.47
2019-06-07T03:51:24.882Z,14.23
2019-06-07T03:53:48.794Z,15.80
2019-06-07T03:56:21.172Z,16.13
2019-06-07T03:58:55.951Z,17.07
2019-06-07T04:01:32.352Z,17.23
2019-06-07T04:04:09.079Z,18.50
2019-06-07T04:06:48.002Z,14.13
2019-06-07T04:09:25.129Z,16.67
2019-06-07T04:11:59.366Z,13.90
2019-06-07T04:14:37.688Z,16.10
2019-06-07T04:17:10.169Z,18.60
2019-06-07T04:19:47.512Z,18.37
2019-06-07T04:22:23.058Z,15.53
2019-06-07T04:24:59.838Z,14.67
2019-06-07T04:27:32.969Z,14.20
2019-06-07T04:30:08.066Z,13.50
2019-06-07T04:32:58.752Z,12.23
2019-06-07T04:35:31.443Z,11.03
2019-06-07T04:38:14.947Z,12.47
2019-06-07T04:41:00.997Z,9.00
2019-06-07T04:46:39.849Z,8.50
2019-06-07T04:49:15.825Z,8.13
2019-06-07T04:51:49.930Z,10.97
2019-06-07T04:54:22.481Z,12.80
2019-06-07T05:38:08.098Z,11.70
2019-06-07T05:41:24.681Z,6.50
2019-06-07T05:44:12.250Z,8.73
2019-06-07T05:46:37.968Z,6.50
2019-06-07T05:49:18.235Z,4.83
2019-06-07T05:52:59.353Z,7.13
2019-06-07T05:59:31.130Z,6.03
2019-06-07T06:02:22.778Z,5.07
2019-06-07T06:04:57.454Z,4.63
2019-06-07T06:10:29.997Z,6.33
2019-06-07T06:16:10.681Z,4.77
2019-06-07T06:19:09.382Z,4.27
2019-06-07T06:25:31.649Z,4.53
2019-06-07T06:28:10.186Z,3.70
2019-06-07T06:30:45.518Z,6.30
2019-06-07T06:33:34.837Z,5.25
2019-06-07T06:39:30.010Z,3.83
2019-06-07T06:42:14.184Z,3.67
2019-06-07T06:44:47.100Z,5.40
2019-06-07T06:47:20.686Z,3.53
2019-06-07T06:49:54.656Z,4.90
2019-06-07T06:52:26.056Z,4.07
2019-06-07T06:55:01.127Z,8.43
2019-06-07T06:57:33.537Z,4.53
2019-06-07T07:00:11.693Z,5.63
2019-06-07T07:03:33.076Z,5.27
2019-06-07T07:05:19.149Z,4.37
2019-06-07T07:07:52.884Z,3.90
2019-06-07T07:10:37.920Z,3.10
2019-06-07T07:13:08.986Z,2.57
2019-06-07T07:15:44.746Z,4.97
2019-06-07T07:18:16.749Z,3.07
2019-06-07T07:20:48.367Z,5.40
2019-06-07T07:23:20.374Z,4.37
2019-06-07T07:25:58.211Z,5.23
2019-06-07T07:28:24.251Z,3.57
2019-06-07T07:30:57.295Z,2.93
2019-06-07T07:34:27.364Z,2.50
2019-06-07T07:36:35.167Z,2.87
2019-06-07T07:38:48.920Z,3.83
2019-06-07T07:41:17.138Z,4.67
2019-06-07T07:43:54.584Z,2.97
2019-06-07T07:46:29.139Z,4.90
2019-06-07T07:48:56.295Z,3.97
2019-06-07T07:51:33.330Z,5.50
2019-06-07T07:54:10.570Z,3.30
2019-06-07T07:56:45.331Z,2.93
2019-06-07T07:59:40.618Z,3.97
2019-06-07T08:01:59.056Z,2.70
2019-06-07T08:05:12.723Z,3.03
2019-06-07T08:07:12.127Z,2.40
2019-06-07T08:09:44.353Z,2.83
2019-06-07T08:12:19.824Z,2.57
2019-06-07T08:14:57.480Z,3.43
2019-06-07T08:17:32.845Z,3.57
2019-06-07T08:20:03.924Z,2.60
2019-06-07T08:22:35.078Z,2.80
2019-06-07T08:25:06.335Z,2.30
2019-06-07T08:27:37.805Z,4.00
2019-06-07T08:30:46.564Z,3.03
2019-06-07T08:32:46.023Z,4.20
2019-06-07T08:36:03.195Z,4.20
2019-06-07T08:38:21.526Z,3.17
2019-06-07T08:40:34.421Z,3.37
2019-06-07T08:43:19.902Z,4.50
2019-06-07T08:45:44.580Z,5.23
2019-06-07T08:48:27.782Z,3.63
2019-06-07T08:51:02.227Z,4.90
2019-06-07T08:54:02.461Z,3.60
2019-06-07T08:56:32.359Z,4.27
2019-06-07T08:59:10.710Z,3.77
2019-06-07T09:01:37.191Z,4.30
2019-06-07T09:04:27.498Z,4.67
2019-06-07T09:07:18.816Z,3.30
2019-06-07T09:09:43.443Z,5.03
2019-06-07T09:12:20.143Z,5.90
2019-06-07T09:15:06.239Z,3.47
2019-06-07T09:18:29.472Z,3.83
2019-06-07T09:20:36.970Z,5.13
2019-06-07T09:26:19.816Z,2.67
2019-06-07T09:57:17.460Z,4.03
2019-06-07T09:59:45.465Z,4.70
2019-06-07T10:02:26.958Z,4.28
2019-06-07T10:05:14.036Z,4.35
2019-06-07T10:08:02.313Z,5.95
2019-06-07T10:10:36.157Z,3.95
2019-06-07T10:13:13.008Z,5.25
2019-06-07T10:15:56.186Z,4.58
2019-06-07T10:18:35.385Z,4.40
2019-06-07T10:21:15.133Z,4.30
2019-06-07T10:23:47.263Z,3.22
2019-06-07T10:26:20.745Z,3.95
2019-06-07T10:28:53.540Z,3.22
2019-06-07T10:31:24.385Z,2.70
2019-06-07T10:33:55.869Z,3.62
2019-06-07T10:36:26.528Z,4.55
2019-06-07T10:38:57.380Z,3.55
2019-06-07T10:41:28.340Z,3.47
2019-06-07T10:44:03.460Z,3.17
2019-06-07T10:46:39.302Z,3.55
2019-06-07T10:49:12.270Z,2.85
2019-06-07T10:51:55.210Z,3.05
2019-06-07T10:54:30.578Z,3.25
2019-06-07T10:56:58.935Z,4.00
2019-06-07T10:59:30.041Z,3.12
2019-06-07T11:02:00.941Z,3.00
2019-06-07T11:04:31.924Z,2.55
2019-06-07T11:07:06.466Z,5.60
2019-06-07T11:09:39.558Z,3.55
2019-06-07T11:12:12.442Z,3.25
2019-06-07T11:14:43.378Z,3.92
2019-06-07T11:17:17.921Z,2.70
2019-06-07T11:19:49.009Z,3.15
2019-06-07T11:22:21.366Z,4.00
2019-06-07T11:24:55.596Z,3.75
2019-06-07T11:27:26.794Z,4.87
2019-06-07T11:29:57.699Z,2.98
2019-06-07T11:32:29.371Z,4.53
2019-06-07T11:35:00.422Z,3.67
2019-06-07T11:37:31.601Z,3.27
2019-06-07T11:40:02.642Z,4.42
2019-06-07T11:42:35.294Z,2.80
2019-06-07T11:45:08.033Z,2.80
2019-06-07T11:47:39.330Z,4.15
2019-06-07T11:50:11.823Z,3.62
2019-06-07T11:52:47.644Z,3.00
2019-06-07T11:55:30.667Z,4.03
2019-06-07T11:58:11.145Z,2.55
2019-06-07T12:00:41.053Z,3.15
2019-06-07T12:03:21.232Z,2.37
2019-06-07T12:05:51.928Z,3.37
2019-06-07T12:08:26.406Z,4.37
2019-06-07T12:11:02.514Z,3.22
2019-06-07T12:13:39.847Z,5.08
2019-06-07T12:16:11.269Z,3.83
2019-06-07T12:18:42.233Z,3.40
2019-06-07T12:21:13.667Z,2.65
2019-06-07T12:23:46.895Z,3.17
2019-06-07T12:26:18.582Z,3.33
2019-06-07T12:28:49.254Z,6.08
2019-06-07T12:31:21.102Z,6.97
2019-06-07T12:33:52.025Z,3.15
2019-06-07T12:36:22.587Z,2.25
2019-06-07T12:38:54.416Z,4.47
2019-06-07T12:41:25.004Z,2.22
2019-06-07T12:44:00.661Z,2.20
2019-06-07T12:46:31.309Z,6.72
2019-06-07T12:49:02.220Z,3.42
2019-06-07T12:51:33.093Z,3.30
2019-06-07T12:54:03.881Z,4.37
2019-06-07T12:56:36.012Z,2.05
2019-06-07T12:59:08.474Z,2.35
2019-06-07T13:01:40.158Z,3.58
2019-06-07T13:04:16.255Z,3.50
2019-06-07T13:06:50.492Z,3.80
2019-06-07T13:09:21.890Z,4.90
2019-06-07T13:11:55.772Z,5.05
2019-06-07T13:14:28.430Z,6.25
2019-06-07T13:17:00.269Z,2.72
2019-06-07T13:19:30.951Z,4.35
2019-06-07T13:22:07.921Z,3.92
2019-06-07T13:24:44.842Z,6.05
2019-06-07T13:27:18.379Z,4.95
2019-06-07T13:29:50.169Z,5.65
2019-06-07T13:32:21.656Z,5.53
2019-06-07T13:34:53.306Z,6.30
2019-06-07T13:37:25.452Z,2.72
2019-06-07T13:39:56.225Z,5.78
2019-06-07T13:42:29.158Z,4.08
2019-06-07T13:45:03.573Z,8.70
2019-06-07T13:47:35.461Z,2.22
2019-06-07T13:50:09.319Z,2.52
2019-06-07T13:52:42.085Z,2.27
2019-06-07T13:55:17.806Z,4.20
2019-06-07T13:58:14.195Z,4.70
2019-06-07T14:00:50.601Z,4.03
2019-06-07T14:03:29.229Z,5.08
2019-06-07T14:05:59.342Z,3.00
2019-06-07T14:08:31.101Z,3.92
2019-06-07T14:11:05.214Z,3.40
2019-06-07T14:13:36.704Z,3.42
2019-06-07T14:16:08.195Z,6.47
2019-06-07T14:18:40.676Z,4.58
2019-06-07T14:21:11.476Z,3.77
2019-06-07T14:23:49.342Z,2.72
2019-06-07T14:26:21.548Z,4.90
2019-06-07T14:28:54.170Z,5.05
2019-06-07T14:31:26.299Z,4.75
2019-06-07T14:33:57.067Z,4.65
2019-06-07T14:36:29.015Z,3.30
2019-06-07T14:39:00.333Z,3.87
2019-06-07T14:41:33.611Z,3.77
2019-06-07T14:44:05.637Z,7.00
2019-06-07T14:46:37.357Z,4.80
2019-06-07T14:49:13.740Z,2.75
2019-06-07T14:51:45.773Z,4.70
2019-06-07T14:54:16.580Z,2.37
2019-06-07T14:56:47.425Z,4.08
2019-06-07T14:59:19.594Z,5.22
2019-06-07T15:01:51.392Z,2.65
2019-06-07T15:04:23.386Z,3.62
2019-06-07T15:06:54.109Z,3.47
2019-06-07T15:09:24.854Z,4.55
2019-06-07T15:11:55.618Z,5.00
2019-06-07T15:14:27.556Z,5.57
2019-06-07T15:16:58.407Z,6.97
2019-06-07T15:19:29.154Z,7.40
2019-06-07T15:22:03.227Z,3.83
2019-06-07T15:24:38.903Z,3.67
2019-06-07T15:27:17.719Z,4.57
2019-06-07T15:29:48.950Z,5.10
2019-06-07T15:32:20.307Z,5.83
2019-06-07T15:34:57.458Z,4.57
2019-06-07T15:37:28.889Z,7.33
2019-06-07T15:40:08.908Z,5.70
2019-06-07T15:42:52.509Z,5.33
2019-06-07T15:45:20.908Z,5.90
2019-06-07T15:47:59.140Z,4.83
2019-06-07T15:50:41.265Z,6.43
2019-06-07T15:53:16.721Z,5.30
2019-06-07T15:55:57.689Z,5.13
2019-06-07T15:58:31.251Z,5.67
2019-06-07T16:01:05.573Z,6.03
2019-06-07T16:03:43.576Z,5.13
2019-06-07T16:06:24.976Z,5.80
2019-06-07T16:08:56.211Z,6.33
2019-06-07T16:11:32.679Z,5.20
2019-06-07T16:14:06.228Z,5.57
2019-06-07T16:16:37.305Z,5.70
2019-06-07T16:19:19.796Z,6.83
2019-06-07T16:22:28.957Z,6.67
2019-06-07T16:25:05.975Z,7.90
2019-06-07T16:27:49.513Z,8.53
2019-06-07T16:30:21.777Z,6.27
2019-06-07T16:33:02.862Z,3.17
2019-06-07T16:35:39.058Z,2.70
2019-06-07T16:38:17.890Z,4.67
2019-06-07T16:40:48.795Z,5.30
2019-06-07T16:43:38.564Z,4.10
2019-06-07T16:46:50.917Z,3.30
2019-06-07T16:49:34.537Z,1.30
2019-06-07T16:52:10.388Z,2.57
2019-06-07T16:54:43.616Z,1.93
2019-06-07T16:57:20.458Z,2.40
2019-06-07T17:00:32.694Z,2.60
2019-06-07T17:03:24.619Z,2.00
2019-06-07T17:06:02.379Z,1.37
2019-06-07T17:08:44.230Z,1.70
2019-06-07T17:11:18.651Z,2.20
2019-06-07T17:14:05.651Z,2.10
2019-06-07T17:16:40.869Z,2.77
2019-06-07T17:19:15.153Z,2.03
2019-06-07T17:21:47.510Z,2.50
2019-06-07T17:24:19.525Z,1.13
2019-06-07T17:26:56.485Z,2.90
2019-06-07T17:29:30.571Z,3.43
2019-06-07T17:32:16.028Z,1.10
2019-06-07T17:35:05.006Z,2.83
2019-06-07T17:37:53.999Z,2.60
2019-06-07T17:40:32.258Z,1.80
2019-06-07T17:43:29.910Z,2.57
2019-06-07T17:46:33.812Z,1.93
2019-06-07T17:49:31.437Z,2.10
2019-06-07T17:52:09.232Z,4.43
2019-06-07T17:55:16.913Z,3.53
2019-06-07T17:57:57.800Z,2.10
2019-06-07T18:00:59.611Z,1.80
2019-06-07T18:03:42.983Z,3.70
2019-06-07T18:06:40.420Z,1.63
2019-06-07T18:09:18.543Z,2.60
2019-06-07T18:11:52.245Z,5.17
2019-06-07T18:14:26.196Z,2.33
2019-06-07T18:17:06.030Z,2.23
2019-06-07T18:22:30.189Z,1.23
2019-06-07T18:25:05.137Z,4.53
2019-06-07T18:27:46.551Z,1.00
2019-06-07T18:30:25.924Z,1.83
2019-06-07T18:33:00.975Z,3.70
2019-06-07T18:35:34.873Z,6.97
2019-06-07T18:38:10.875Z,1.67
2019-06-07T18:40:40.790Z,1.57
2019-06-07T18:43:26.522Z,2.03
2019-06-07T18:46:22.836Z,1.30
2019-06-07T18:48:58.789Z,2.80
2019-06-07T18:51:32.090Z,1.10
2019-06-07T18:54:05.927Z,2.27
2019-06-07T18:56:40.073Z,1.97
2019-06-07T18:59:23.743Z,1.33
2019-06-07T19:02:00.155Z,2.07
2019-06-07T19:04:43.288Z,1.17
2019-06-07T19:07:24.395Z,4.87
2019-06-07T19:10:19.594Z,2.37
2019-06-07T19:13:05.224Z,2.87
2019-06-07T20:09:36.945Z,1.83
2019-06-07T20:12:19.068Z,5.70
2019-06-07T20:15:13.585Z,2.70
2019-06-07T20:17:31.363Z,4.47
2019-06-07T20:20:31.595Z,1.50
2019-06-07T20:23:09.338Z,2.00
2019-06-07T20:25:48.830Z,2.07
2019-06-07T20:28:32.449Z,1.87
2019-06-07T20:31:08.296Z,1.97
2019-06-07T20:33:53.678Z,2.77
2019-06-07T20:36:29.326Z,3.70
2019-06-07T20:39:17.626Z,2.07
2019-06-07T20:41:57.095Z,3.80
2019-06-07T20:44:33.326Z,2.10
2019-06-07T20:47:18.325Z,3.97
2019-06-07T20:50:02.496Z,3.13
2019-06-07T20:52:45.187Z,1.97
2019-06-07T20:55:25.888Z,3.83
2019-06-07T20:58:05.607Z,4.10
2019-06-07T21:00:48.856Z,4.47
2019-06-07T21:03:22.772Z,1.80
2019-06-07T21:06:24.717Z,1.10
2019-06-07T21:08:55.665Z,1.73
2019-06-07T21:11:36.443Z,2.27
2019-06-07T21:14:12.436Z,2.33
2019-06-07T21:16:47.885Z,1.73
2019-06-07T21:19:22.538Z,1.87
2019-06-07T21:21:55.941Z,6.00
2019-06-07T21:24:30.198Z,3.30
2019-06-07T21:27:07.493Z,2.37
2019-06-07T21:29:39.288Z,2.73
2019-06-07T21:32:10.216Z,2.17
2019-06-07T21:34:43.773Z,3.00
2019-06-07T21:37:14.943Z,3.17
2019-06-07T21:39:46.119Z,4.67
2019-06-07T21:42:49.233Z,2.23
2019-06-07T22:22:07.517Z,3.23
2019-06-07T22:24:44.775Z,4.90
2019-06-07T22:27:52.360Z,5.20
2019-06-07T22:30:53.609Z,1.63
2019-06-07T22:34:01.133Z,3.00
2019-06-07T22:36:35.932Z,1.20
2019-06-07T22:39:11.948Z,3.27
2019-06-07T22:41:52.491Z,2.67
2019-06-07T22:44:28.770Z,3.87
2019-06-07T22:47:02.881Z,5.07
2019-06-07T22:49:35.288Z,3.00
2019-06-07T22:52:09.331Z,3.10
2019-06-07T22:54:41.922Z,3.13
2019-06-07T23:21:57.576Z,2.90
